sensor_id;sensor_type;location;lat;lon;timestamp;P1;durP1;ratioP1;P2;durP2;ratioP2
21991;SDS011;11160;51.576;0.194;2022-07-10T00:02:06;129.45;;;123.20;;
21991;SDS011;11160;51.576;0.194;2022-07-10T00:04:33;133.93;;;127.47;;
21991;SDS011;11160;51.576;0.194;2022-07-10T00:07:00;132.52;;;126.20;;
21991;SDS011;11160;51.576;0.194;2022-07-10T00:09:28;134.38;;;127.95;;
21991;SDS011;11160;51.576;0.194;2022-07-10T00:11:56;128.43;;;122.15;;
21991;SDS011;11160;51.576;0.194;2022-07-10T00:14:23;141.30;;;134.57;;
21991;SDS011;11160;51.576;0.194;2022-07-10T00:16:50;137.18;;;130.52;;
21991;SDS011;11160;51.576;0.194;2022-07-10T00:19:18;147.00;;;139.30;;
21991;SDS011;11160;51.576;0.194;2022-07-10T00:21:45;141.30;;;134.48;;
21991;SDS011;11160;51.576;0.194;2022-07-10T00:24:12;137.07;;;130.45;;
21991;SDS011;11160;51.576;0.194;2022-07-10T00:26:39;123.43;;;117.43;;
21991;SDS011;11160;51.576;0.194;2022-07-10T00:29:07;134.13;;;127.70;;
21991;SDS011;11160;51.576;0.194;2022-07-10T00:31:35;139.45;;;132.75;;
21991;SDS011;11160;51.576;0.194;2022-07-10T00:34:02;133.40;;;127.13;;
21991;SDS011;11160;51.576;0.194;2022-07-10T00:36:29;133.35;;;126.85;;
21991;SDS011;11160;51.576;0.194;2022-07-10T00:38:57;138.95;;;132.23;;
21991;SDS011;11160;51.576;0.194;2022-07-10T00:41:24;135.35;;;128.80;;
21991;SDS011;11160;51.576;0.194;2022-07-10T00:46:23;139.45;;;132.65;;
21991;SDS011;11160;51.576;0.194;2022-07-10T00:48:53;128.70;;;122.57;;
21991;SDS011;11160;51.576;0.194;2022-07-10T00:51:23;141.23;;;134.55;;
21991;SDS011;11160;51.576;0.194;2022-07-10T00:53:52;133.65;;;127.25;;
21991;SDS011;11160;51.576;0.194;2022-07-10T00:56:20;133.35;;;126.95;;
21991;SDS011;11160;51.576;0.194;2022-07-10T00:58:52;130.43;;;124.22;;
21991;SDS011;11160;51.576;0.194;2022-07-10T01:01:20;142.90;;;136.15;;
21991;SDS011;11160;51.576;0.194;2022-07-10T01:03:49;130.90;;;124.68;;
21991;SDS011;11160;51.576;0.194;2022-07-10T01:06:17;127.05;;;120.90;;
21991;SDS011;11160;51.576;0.194;2022-07-10T01:08:45;126.03;;;120.05;;
21991;SDS011;11160;51.576;0.194;2022-07-10T01:11:13;125.32;;;119.38;;
21991;SDS011;11160;51.576;0.194;2022-07-10T01:13:42;127.38;;;121.32;;
21991;SDS011;11160;51.576;0.194;2022-07-10T01:16:10;121.88;;;116.05;;
21991;SDS011;11160;51.576;0.194;2022-07-10T01:18:38;133.30;;;126.90;;
21991;SDS011;11160;51.576;0.194;2022-07-10T01:21:22;124.80;;;118.80;;
21991;SDS011;11160;51.576;0.194;2022-07-10T01:23:53;117.05;;;111.53;;
21991;SDS011;11160;51.576;0.194;2022-07-10T01:26:20;117.53;;;111.90;;
21991;SDS011;11160;51.576;0.194;2022-07-10T01:28:51;117.55;;;111.95;;
21991;SDS011;11160;51.576;0.194;2022-07-10T01:31:19;118.55;;;112.97;;
21991;SDS011;11160;51.576;0.194;2022-07-10T01:33:51;127.10;;;120.97;;
21991;SDS011;11160;51.576;0.194;2022-07-10T01:36:22;118.75;;;113.00;;
21991;SDS011;11160;51.576;0.194;2022-07-10T01:38:53;115.95;;;110.43;;
21991;SDS011;11160;51.576;0.194;2022-07-10T01:41:21;119.05;;;113.38;;
21991;SDS011;11160;51.576;0.194;2022-07-10T01:43:48;133.77;;;127.43;;
21991;SDS011;11160;51.576;0.194;2022-07-10T01:46:16;129.07;;;122.95;;
21991;SDS011;11160;51.576;0.194;2022-07-10T01:48:44;125.00;;;119.05;;
21991;SDS011;11160;51.576;0.194;2022-07-10T01:51:12;115.68;;;110.10;;
21991;SDS011;11160;51.576;0.194;2022-07-10T01:53:39;126.00;;;119.97;;
21991;SDS011;11160;51.576;0.194;2022-07-10T01:56:08;124.95;;;119.00;;
21991;SDS011;11160;51.576;0.194;2022-07-10T01:58:38;112.40;;;106.97;;
21991;SDS011;11160;51.576;0.194;2022-07-10T02:01:07;119.45;;;113.68;;
21991;SDS011;11160;51.576;0.194;2022-07-10T02:03:35;118.00;;;112.43;;
21991;SDS011;11160;51.576;0.194;2022-07-10T02:06:21;126.13;;;120.15;;
21991;SDS011;11160;51.576;0.194;2022-07-10T02:08:48;112.10;;;106.63;;
21991;SDS011;11160;51.576;0.194;2022-07-10T02:11:15;125.53;;;119.35;;
21991;SDS011;11160;51.576;0.194;2022-07-10T02:13:42;134.77;;;128.27;;
21991;SDS011;11160;51.576;0.194;2022-07-10T02:16:10;131.88;;;125.57;;
21991;SDS011;11160;51.576;0.194;2022-07-10T02:18:37;130.27;;;123.85;;
21991;SDS011;11160;51.576;0.194;2022-07-10T02:21:06;118.30;;;112.57;;
21991;SDS011;11160;51.576;0.194;2022-07-10T02:23:33;128.00;;;121.93;;
21991;SDS011;11160;51.576;0.194;2022-07-10T02:26:01;131.38;;;125.05;;
21991;SDS011;11160;51.576;0.194;2022-07-10T02:28:28;125.82;;;119.68;;
21991;SDS011;11160;51.576;0.194;2022-07-10T02:30:56;133.73;;;127.30;;
21991;SDS011;11160;51.576;0.194;2022-07-10T02:33:23;126.05;;;120.05;;
21991;SDS011;11160;51.576;0.194;2022-07-10T02:35:50;133.55;;;127.15;;
21991;SDS011;11160;51.576;0.194;2022-07-10T02:38:18;120.55;;;114.88;;
21991;SDS011;11160;51.576;0.194;2022-07-10T02:40:45;129.93;;;123.60;;
21991;SDS011;11160;51.576;0.194;2022-07-10T02:43:14;131.40;;;125.07;;
21991;SDS011;11160;51.576;0.194;2022-07-10T02:45:41;122.95;;;116.95;;
21991;SDS011;11160;51.576;0.194;2022-07-10T02:48:14;141.95;;;135.07;;
21991;SDS011;11160;51.576;0.194;2022-07-10T02:50:42;124.30;;;118.35;;
21991;SDS011;11160;51.576;0.194;2022-07-10T02:53:09;128.88;;;122.72;;
21991;SDS011;11160;51.576;0.194;2022-07-10T02:55:36;122.95;;;117.07;;
21991;SDS011;11160;51.576;0.194;2022-07-10T02:58:03;130.82;;;124.55;;
21991;SDS011;11160;51.576;0.194;2022-07-10T03:00:30;131.07;;;124.70;;
21991;SDS011;11160;51.576;0.194;2022-07-10T03:02:58;127.88;;;121.82;;
21991;SDS011;11160;51.576;0.194;2022-07-10T03:05:25;126.55;;;120.53;;
21991;SDS011;11160;51.576;0.194;2022-07-10T03:07:52;121.40;;;115.55;;
21991;SDS011;11160;51.576;0.194;2022-07-10T03:10:19;132.00;;;125.63;;
21991;SDS011;11160;51.576;0.194;2022-07-10T03:12:47;131.88;;;125.63;;
21991;SDS011;11160;51.576;0.194;2022-07-10T03:15:14;123.53;;;117.63;;
21991;SDS011;11160;51.576;0.194;2022-07-10T03:17:41;124.20;;;118.28;;
21991;SDS011;11160;51.576;0.194;2022-07-10T03:20:08;129.25;;;123.05;;
21991;SDS011;11160;51.576;0.194;2022-07-10T03:22:36;122.55;;;116.63;;
21991;SDS011;11160;51.576;0.194;2022-07-10T03:25:04;123.03;;;117.10;;
21991;SDS011;11160;51.576;0.194;2022-07-10T03:27:31;121.28;;;115.43;;
21991;SDS011;11160;51.576;0.194;2022-07-10T03:29:58;130.80;;;124.60;;
21991;SDS011;11160;51.576;0.194;2022-07-10T03:32:26;123.97;;;118.07;;
21991;SDS011;11160;51.576;0.194;2022-07-10T03:34:53;126.07;;;119.72;;
21991;SDS011;11160;51.576;0.194;2022-07-10T03:37:20;120.70;;;114.95;;
21991;SDS011;11160;51.576;0.194;2022-07-10T03:39:49;121.15;;;115.30;;
21991;SDS011;11160;51.576;0.194;2022-07-10T03:42:16;118.72;;;112.80;;
21991;SDS011;11160;51.576;0.194;2022-07-10T03:44:43;127.97;;;121.85;;
21991;SDS011;11160;51.576;0.194;2022-07-10T03:47:11;121.95;;;116.05;;
21991;SDS011;11160;51.576;0.194;2022-07-10T03:49:38;119.00;;;113.38;;
21991;SDS011;11160;51.576;0.194;2022-07-10T03:52:06;122.40;;;116.50;;
21991;SDS011;11160;51.576;0.194;2022-07-10T03:54:34;118.88;;;113.10;;
21991;SDS011;11160;51.576;0.194;2022-07-10T03:59:50;89.57;;;85.05;;
21991;SDS011;11160;51.576;0.194;2022-07-10T04:02:17;107.13;;;102.03;;
21991;SDS011;11160;51.576;0.194;2022-07-10T04:04:44;107.22;;;102.03;;
21991;SDS011;11160;51.576;0.194;2022-07-10T04:07:12;116.22;;;110.57;;
21991;SDS011;11160;51.576;0.194;2022-07-10T04:09:39;115.40;;;109.78;;
21991;SDS011;11160;51.576;0.194;2022-07-10T04:12:07;121.25;;;115.43;;
21991;SDS011;11160;51.576;0.194;2022-07-10T04:14:34;121.05;;;115.20;;
21991;SDS011;11160;51.576;0.194;2022-07-10T04:17:01;119.20;;;113.38;;
21991;SDS011;11160;51.576;0.194;2022-07-10T04:19:29;118.88;;;112.97;;
21991;SDS011;11160;51.576;0.194;2022-07-10T04:21:56;103.43;;;98.28;;
21991;SDS011;11160;51.576;0.194;2022-07-10T04:24:23;124.60;;;118.65;;
21991;SDS011;11160;51.576;0.194;2022-07-10T04:26:50;117.32;;;111.65;;
21991;SDS011;11160;51.576;0.194;2022-07-10T04:29:17;124.88;;;118.75;;
21991;SDS011;11160;51.576;0.194;2022-07-10T04:31:44;122.32;;;116.43;;
21991;SDS011;11160;51.576;0.194;2022-07-10T04:34:12;119.28;;;113.50;;
21991;SDS011;11160;51.576;0.194;2022-07-10T04:36:39;120.18;;;114.35;;
21991;SDS011;11160;51.576;0.194;2022-07-10T04:39:07;119.57;;;113.80;;
21991;SDS011;11160;51.576;0.194;2022-07-10T04:41:34;110.68;;;105.38;;
21991;SDS011;11160;51.576;0.194;2022-07-10T04:44:02;113.30;;;107.82;;
21991;SDS011;11160;51.576;0.194;2022-07-10T04:46:29;122.03;;;116.10;;
21991;SDS011;11160;51.576;0.194;2022-07-10T04:48:56;116.90;;;111.03;;
21991;SDS011;11160;51.576;0.194;2022-07-10T04:51:23;117.25;;;111.53;;
21991;SDS011;11160;51.576;0.194;2022-07-10T04:53:50;116.22;;;110.55;;
21991;SDS011;11160;51.576;0.194;2022-07-10T04:56:17;119.05;;;113.15;;
21991;SDS011;11160;51.576;0.194;2022-07-10T04:58:45;117.10;;;111.38;;
21991;SDS011;11160;51.576;0.194;2022-07-10T05:01:18;113.07;;;107.38;;
21991;SDS011;11160;51.576;0.194;2022-07-10T05:03:45;117.18;;;111.53;;
21991;SDS011;11160;51.576;0.194;2022-07-10T05:06:13;116.40;;;110.57;;
21991;SDS011;11160;51.576;0.194;2022-07-10T05:08:40;117.60;;;111.88;;
21991;SDS011;11160;51.576;0.194;2022-07-10T05:11:07;113.88;;;108.15;;
21991;SDS011;11160;51.576;0.194;2022-07-10T05:13:35;113.40;;;107.70;;
21991;SDS011;11160;51.576;0.194;2022-07-10T05:16:02;104.45;;;99.30;;
21991;SDS011;11160;51.576;0.194;2022-07-10T05:18:30;112.90;;;107.20;;
21991;SDS011;11160;51.576;0.194;2022-07-10T05:20:57;99.13;;;94.30;;
21991;SDS011;11160;51.576;0.194;2022-07-10T05:23:24;101.70;;;96.53;;
21991;SDS011;11160;51.576;0.194;2022-07-10T05:25:51;105.35;;;100.22;;
21991;SDS011;11160;51.576;0.194;2022-07-10T05:28:18;105.75;;;100.47;;
21991;SDS011;11160;51.576;0.194;2022-07-10T05:30:45;101.07;;;95.78;;
21991;SDS011;11160;51.576;0.194;2022-07-10T05:33:12;105.20;;;100.07;;
21991;SDS011;11160;51.576;0.194;2022-07-10T05:35:40;106.18;;;101.00;;
21991;SDS011;11160;51.576;0.194;2022-07-10T05:38:07;113.90;;;108.28;;
21991;SDS011;11160;51.576;0.194;2022-07-10T05:40:34;94.80;;;89.88;;
21991;SDS011;11160;51.576;0.194;2022-07-10T05:43:01;97.28;;;92.22;;
21991;SDS011;11160;51.576;0.194;2022-07-10T05:45:28;101.25;;;96.30;;
21991;SDS011;11160;51.576;0.194;2022-07-10T05:47:55;86.97;;;82.57;;
21991;SDS011;11160;51.576;0.194;2022-07-10T05:50:23;108.50;;;103.15;;
21991;SDS011;11160;51.576;0.194;2022-07-10T05:52:50;94.10;;;89.38;;
21991;SDS011;11160;51.576;0.194;2022-07-10T05:55:17;99.70;;;94.78;;
21991;SDS011;11160;51.576;0.194;2022-07-10T05:57:44;91.60;;;86.95;;
21991;SDS011;11160;51.576;0.194;2022-07-10T06:00:11;93.25;;;88.60;;
21991;SDS011;11160;51.576;0.194;2022-07-10T06:02:39;100.20;;;95.20;;
21991;SDS011;11160;51.576;0.194;2022-07-10T06:05:06;98.85;;;94.03;;
21991;SDS011;11160;51.576;0.194;2022-07-10T06:07:34;81.60;;;77.28;;
21991;SDS011;11160;51.576;0.194;2022-07-10T06:10:03;92.13;;;87.63;;
21991;SDS011;11160;51.576;0.194;2022-07-10T06:12:32;64.75;;;61.42;;
21991;SDS011;11160;51.576;0.194;2022-07-10T06:14:59;84.05;;;79.72;;
21991;SDS011;11160;51.576;0.194;2022-07-10T06:17:26;72.07;;;68.38;;
21991;SDS011;11160;51.576;0.194;2022-07-10T06:19:54;72.03;;;68.30;;
21991;SDS011;11160;51.576;0.194;2022-07-10T06:22:21;64.05;;;60.72;;
21991;SDS011;11160;51.576;0.194;2022-07-10T06:25:00;67.30;;;63.75;;
21991;SDS011;11160;51.576;0.194;2022-07-10T06:27:31;63.33;;;60.08;;
21991;SDS011;11160;51.576;0.194;2022-07-10T06:29:59;68.03;;;64.47;;
21991;SDS011;11160;51.576;0.194;2022-07-10T06:32:27;64.25;;;60.88;;
21991;SDS011;11160;51.576;0.194;2022-07-10T06:34:54;64.00;;;60.67;;
21991;SDS011;11160;51.576;0.194;2022-07-10T06:37:21;65.93;;;62.50;;
21991;SDS011;11160;51.576;0.194;2022-07-10T06:39:49;64.97;;;61.65;;
21991;SDS011;11160;51.576;0.194;2022-07-10T06:42:16;67.43;;;64.00;;
21991;SDS011;11160;51.576;0.194;2022-07-10T06:44:47;61.58;;;58.42;;
21991;SDS011;11160;51.576;0.194;2022-07-10T06:47:16;73.53;;;69.78;;
21991;SDS011;11160;51.576;0.194;2022-07-10T06:50:04;77.75;;;73.82;;
21991;SDS011;11160;51.576;0.194;2022-07-10T06:52:32;70.43;;;66.68;;
21991;SDS011;11160;51.576;0.194;2022-07-10T06:55:00;63.25;;;59.88;;
21991;SDS011;11160;51.576;0.194;2022-07-10T06:57:28;70.43;;;66.70;;
21991;SDS011;11160;51.576;0.194;2022-07-10T06:59:55;71.75;;;67.97;;
21991;SDS011;11160;51.576;0.194;2022-07-10T07:02:23;70.15;;;66.45;;
21991;SDS011;11160;51.576;0.194;2022-07-10T07:04:50;71.30;;;67.50;;
21991;SDS011;11160;51.576;0.194;2022-07-10T07:07:17;65.15;;;61.70;;
21991;SDS011;11160;51.576;0.194;2022-07-10T07:09:51;65.82;;;62.22;;
21991;SDS011;11160;51.576;0.194;2022-07-10T07:12:18;62.67;;;59.35;;
21991;SDS011;11160;51.576;0.194;2022-07-10T07:14:46;62.95;;;59.65;;
21991;SDS011;11160;51.576;0.194;2022-07-10T07:17:13;59.28;;;56.03;;
21991;SDS011;11160;51.576;0.194;2022-07-10T07:19:48;60.72;;;57.35;;
21991;SDS011;11160;51.576;0.194;2022-07-10T07:22:34;64.70;;;61.22;;
21991;SDS011;11160;51.576;0.194;2022-07-10T07:25:21;63.13;;;59.70;;
21991;SDS011;11160;51.576;0.194;2022-07-10T07:27:48;63.83;;;60.38;;
21991;SDS011;11160;51.576;0.194;2022-07-10T07:30:17;64.53;;;61.08;;
21991;SDS011;11160;51.576;0.194;2022-07-10T07:32:45;61.10;;;57.78;;
21991;SDS011;11160;51.576;0.194;2022-07-10T07:35:13;62.88;;;59.33;;
21991;SDS011;11160;51.576;0.194;2022-07-10T07:37:42;70.65;;;66.75;;
21991;SDS011;11160;51.576;0.194;2022-07-10T07:40:18;61.63;;;58.22;;
21991;SDS011;11160;51.576;0.194;2022-07-10T07:42:48;67.32;;;63.50;;
21991;SDS011;11160;51.576;0.194;2022-07-10T07:45:16;79.78;;;75.30;;
21991;SDS011;11160;51.576;0.194;2022-07-10T07:47:45;86.25;;;81.32;;
21991;SDS011;11160;51.576;0.194;2022-07-10T07:50:16;91.45;;;86.35;;
21991;SDS011;11160;51.576;0.194;2022-07-10T07:52:45;84.95;;;80.18;;
21991;SDS011;11160;51.576;0.194;2022-07-10T07:55:13;94.68;;;89.32;;
21991;SDS011;11160;51.576;0.194;2022-07-10T07:57:41;84.80;;;79.95;;
21991;SDS011;11160;51.576;0.194;2022-07-10T08:00:10;89.63;;;84.63;;
21991;SDS011;11160;51.576;0.194;2022-07-10T08:02:39;87.45;;;82.50;;
21991;SDS011;11160;51.576;0.194;2022-07-10T08:05:07;91.22;;;85.97;;
21991;SDS011;11160;51.576;0.194;2022-07-10T08:07:39;75.38;;;71.10;;
21991;SDS011;11160;51.576;0.194;2022-07-10T08:10:08;77.97;;;73.53;;
21991;SDS011;11160;51.576;0.194;2022-07-10T08:12:37;58.75;;;55.55;;
21991;SDS011;11160;51.576;0.194;2022-07-10T08:15:07;66.07;;;62.42;;
21991;SDS011;11160;51.576;0.194;2022-07-10T08:17:35;63.53;;;60.03;;
21991;SDS011;11160;51.576;0.194;2022-07-10T08:20:02;62.92;;;59.40;;
21991;SDS011;11160;51.576;0.194;2022-07-10T08:22:31;65.82;;;62.20;;
21991;SDS011;11160;51.576;0.194;2022-07-10T08:24:59;63.63;;;60.08;;
21991;SDS011;11160;51.576;0.194;2022-07-10T08:27:27;58.60;;;55.30;;
21991;SDS011;11160;51.576;0.194;2022-07-10T08:29:55;63.70;;;60.20;;
21991;SDS011;11160;51.576;0.194;2022-07-10T08:32:22;65.43;;;61.78;;
21991;SDS011;11160;51.576;0.194;2022-07-10T08:34:49;67.07;;;63.33;;
21991;SDS011;11160;51.576;0.194;2022-07-10T08:37:16;61.72;;;58.22;;
21991;SDS011;11160;51.576;0.194;2022-07-10T08:39:46;57.70;;;54.47;;
21991;SDS011;11160;51.576;0.194;2022-07-10T08:42:13;61.40;;;57.85;;
21991;SDS011;11160;51.576;0.194;2022-07-10T08:44:42;59.28;;;55.95;;
21991;SDS011;11160;51.576;0.194;2022-07-10T08:47:10;58.83;;;55.47;;
21991;SDS011;11160;51.576;0.194;2022-07-10T08:49:45;54.15;;;51.05;;
21991;SDS011;11160;51.576;0.194;2022-07-10T08:54:51;53.00;;;49.92;;
21991;SDS011;11160;51.576;0.194;2022-07-10T08:57:19;50.60;;;47.75;;
21991;SDS011;11160;51.576;0.194;2022-07-10T08:59:46;58.08;;;54.72;;
21991;SDS011;11160;51.576;0.194;2022-07-10T09:02:14;56.13;;;52.95;;
21991;SDS011;11160;51.576;0.194;2022-07-10T09:04:41;58.42;;;55.03;;
21991;SDS011;11160;51.576;0.194;2022-07-10T09:07:08;58.72;;;55.38;;
21991;SDS011;11160;51.576;0.194;2022-07-10T09:09:50;23.58;;;22.27;;
21991;SDS011;11160;51.576;0.194;2022-07-10T09:12:22;43.50;;;40.92;;
21991;SDS011;11160;51.576;0.194;2022-07-10T09:14:51;29.50;;;27.70;;
21991;SDS011;11160;51.576;0.194;2022-07-10T09:17:19;59.15;;;55.83;;
21991;SDS011;11160;51.576;0.194;2022-07-10T09:19:46;48.40;;;45.72;;
21991;SDS011;11160;51.576;0.194;2022-07-10T09:22:13;46.53;;;43.80;;
21991;SDS011;11160;51.576;0.194;2022-07-10T09:24:45;40.30;;;37.95;;
21991;SDS011;11160;51.576;0.194;2022-07-10T09:27:13;31.75;;;29.90;;
21991;SDS011;11160;51.576;0.194;2022-07-10T09:29:46;49.13;;;46.33;;
21991;SDS011;11160;51.576;0.194;2022-07-10T09:32:21;53.00;;;50.10;;
21991;SDS011;11160;51.576;0.194;2022-07-10T09:34:50;34.13;;;32.22;;
21991;SDS011;11160;51.576;0.194;2022-07-10T09:37:40;42.45;;;40.13;;
21991;SDS011;11160;51.576;0.194;2022-07-10T09:40:08;33.42;;;31.58;;
21991;SDS011;11160;51.576;0.194;2022-07-10T09:42:37;33.92;;;32.03;;
21991;SDS011;11160;51.576;0.194;2022-07-10T09:47:40;56.10;;;52.90;;
21991;SDS011;11160;51.576;0.194;2022-07-10T09:50:19;40.70;;;38.42;;
21991;SDS011;11160;51.576;0.194;2022-07-10T09:52:51;44.40;;;41.90;;
21991;SDS011;11160;51.576;0.194;2022-07-10T09:55:20;44.50;;;42.08;;
21991;SDS011;11160;51.576;0.194;2022-07-10T09:57:51;39.83;;;37.33;;
21991;SDS011;11160;51.576;0.194;2022-07-10T10:00:45;41.92;;;39.58;;
21991;SDS011;11160;51.576;0.194;2022-07-10T10:03:14;31.73;;;29.90;;
21991;SDS011;11160;51.576;0.194;2022-07-10T10:05:44;26.58;;;25.13;;
21991;SDS011;11160;51.576;0.194;2022-07-10T10:08:17;26.13;;;24.35;;
21991;SDS011;11160;51.576;0.194;2022-07-10T10:10:51;27.95;;;26.42;;
21991;SDS011;11160;51.576;0.194;2022-07-10T10:13:21;33.97;;;32.03;;
21991;SDS011;11160;51.576;0.194;2022-07-10T10:15:50;32.00;;;30.05;;
21991;SDS011;11160;51.576;0.194;2022-07-10T10:18:19;22.42;;;21.15;;
21991;SDS011;11160;51.576;0.194;2022-07-10T10:20:51;21.85;;;20.65;;
21991;SDS011;11160;51.576;0.194;2022-07-10T10:23:23;22.45;;;21.05;;
21991;SDS011;11160;51.576;0.194;2022-07-10T10:25:52;24.35;;;22.95;;
21991;SDS011;11160;51.576;0.194;2022-07-10T10:28:24;17.10;;;16.02;;
21991;SDS011;11160;51.576;0.194;2022-07-10T10:30:52;17.65;;;16.55;;
21991;SDS011;11160;51.576;0.194;2022-07-10T10:36:09;34.58;;;32.45;;
21991;SDS011;11160;51.576;0.194;2022-07-10T10:41:30;31.88;;;30.08;;
21991;SDS011;11160;51.576;0.194;2022-07-10T10:46:35;28.88;;;27.27;;
21991;SDS011;11160;51.576;0.194;2022-07-10T10:49:49;43.50;;;40.88;;
21991;SDS011;11160;51.576;0.194;2022-07-10T10:52:16;27.20;;;25.73;;
21991;SDS011;11160;51.576;0.194;2022-07-10T11:00:04;42.70;;;40.50;;
21991;SDS011;11160;51.576;0.194;2022-07-10T11:02:36;28.50;;;27.00;;
21991;SDS011;11160;51.576;0.194;2022-07-10T11:07:59;48.65;;;46.05;;
21991;SDS011;11160;51.576;0.194;2022-07-10T11:10:28;30.83;;;29.02;;
21991;SDS011;11160;51.576;0.194;2022-07-10T11:17:56;26.52;;;25.13;;
21991;SDS011;11160;51.576;0.194;2022-07-10T11:20:24;48.15;;;45.47;;
21991;SDS011;11160;51.576;0.194;2022-07-10T11:25:42;70.00;;;66.55;;
21991;SDS011;11160;51.576;0.194;2022-07-10T11:28:21;81.20;;;77.18;;
21991;SDS011;11160;51.576;0.194;2022-07-10T11:30:52;134.27;;;127.35;;
21991;SDS011;11160;51.576;0.194;2022-07-10T11:33:20;248.65;;;235.60;;
21991;SDS011;11160;51.576;0.194;2022-07-10T11:35:50;177.38;;;168.68;;
21991;SDS011;11160;51.576;0.194;2022-07-10T11:38:21;284.73;;;270.45;;
21991;SDS011;11160;51.576;0.194;2022-07-10T11:40:52;314.58;;;297.40;;
21991;SDS011;11160;51.576;0.194;2022-07-10T11:43:22;416.52;;;391.85;;
21991;SDS011;11160;51.576;0.194;2022-07-10T11:45:52;317.38;;;299.33;;
21991;SDS011;11160;51.576;0.194;2022-07-10T11:48:25;334.33;;;314.27;;
21991;SDS011;11160;51.576;0.194;2022-07-10T11:50:52;233.10;;;220.23;;
21991;SDS011;11160;51.576;0.194;2022-07-10T11:53:23;346.77;;;325.00;;
21991;SDS011;11160;51.576;0.194;2022-07-10T11:55:52;278.88;;;261.83;;
21991;SDS011;11160;51.576;0.194;2022-07-10T11:58:20;275.92;;;259.63;;
21991;SDS011;11160;51.576;0.194;2022-07-10T12:00:58;332.17;;;312.13;;
21991;SDS011;11160;51.576;0.194;2022-07-10T12:03:26;307.58;;;288.17;;
21991;SDS011;11160;51.576;0.194;2022-07-10T12:05:55;377.20;;;353.25;;
21991;SDS011;11160;51.576;0.194;2022-07-10T12:08:46;403.13;;;377.00;;
21991;SDS011;11160;51.576;0.194;2022-07-10T12:11:14;677.58;;;624.80;;
21991;SDS011;11160;51.576;0.194;2022-07-10T12:13:45;845.63;;;764.13;;
21991;SDS011;11160;51.576;0.194;2022-07-10T12:16:13;886.92;;;800.88;;
21991;SDS011;11160;51.576;0.194;2022-07-10T12:18:42;896.90;;;804.53;;
21991;SDS011;11160;51.576;0.194;2022-07-10T12:21:11;938.15;;;839.70;;
21991;SDS011;11160;51.576;0.194;2022-07-10T12:23:39;1108.35;;;880.75;;
21991;SDS011;11160;51.576;0.194;2022-07-10T12:26:09;1118.85;;;894.78;;
21991;SDS011;11160;51.576;0.194;2022-07-10T12:28:49;951.28;;;836.15;;
21991;SDS011;11160;51.576;0.194;2022-07-10T12:31:27;880.03;;;791.40;;
21991;SDS011;11160;51.576;0.194;2022-07-10T12:33:57;801.05;;;727.35;;
21991;SDS011;11160;51.576;0.194;2022-07-10T12:36:45;666.28;;;611.60;;
21991;SDS011;11160;51.576;0.194;2022-07-10T12:42:01;585.58;;;540.35;;
21991;SDS011;11160;51.576;0.194;2022-07-10T12:44:33;674.20;;;620.30;;
21991;SDS011;11160;51.576;0.194;2022-07-10T12:47:09;864.28;;;785.00;;
21991;SDS011;11160;51.576;0.194;2022-07-10T12:49:56;947.78;;;855.53;;
21991;SDS011;11160;51.576;0.194;2022-07-10T12:52:34;971.38;;;874.17;;
21991;SDS011;11160;51.576;0.194;2022-07-10T12:55:10;986.15;;;881.20;;
21991;SDS011;11160;51.576;0.194;2022-07-10T12:57:52;1066.93;;;914.60;;
21991;SDS011;11160;51.576;0.194;2022-07-10T13:00:23;999.95;;;889.20;;
21991;SDS011;11160;51.576;0.194;2022-07-10T13:03:02;1006.28;;;907.90;;
21991;SDS011;11160;51.576;0.194;2022-07-10T13:05:33;984.67;;;889.08;;
21991;SDS011;11160;51.576;0.194;2022-07-10T13:10:49;990.35;;;889.72;;
21991;SDS011;11160;51.576;0.194;2022-07-10T13:13:18;974.35;;;879.63;;
21991;SDS011;11160;51.576;0.194;2022-07-10T13:15:46;990.72;;;895.92;;
21991;SDS011;11160;51.576;0.194;2022-07-10T13:18:17;991.40;;;893.10;;
21991;SDS011;11160;51.576;0.194;2022-07-10T13:20:49;1011.70;;;909.42;;
21991;SDS011;11160;51.576;0.194;2022-07-10T13:23:25;1021.72;;;913.92;;
21991;SDS011;11160;51.576;0.194;2022-07-10T13:25:57;998.25;;;894.70;;
21991;SDS011;11160;51.576;0.194;2022-07-10T13:28:29;984.40;;;884.83;;
21991;SDS011;11160;51.576;0.194;2022-07-10T13:30:56;979.95;;;879.90;;
21991;SDS011;11160;51.576;0.194;2022-07-10T13:33:23;1012.50;;;903.67;;
21991;SDS011;11160;51.576;0.194;2022-07-10T13:35:53;992.08;;;891.92;;
21991;SDS011;11160;51.576;0.194;2022-07-10T13:38:21;1052.90;;;938.25;;
21991;SDS011;11160;51.576;0.194;2022-07-10T13:40:49;997.83;;;893.28;;
21991;SDS011;11160;51.576;0.194;2022-07-10T13:43:16;999.65;;;897.88;;
21991;SDS011;11160;51.576;0.194;2022-07-10T13:45:44;989.63;;;895.40;;
21991;SDS011;11160;51.576;0.194;2022-07-10T13:48:14;1004.95;;;901.15;;
21991;SDS011;11160;51.576;0.194;2022-07-10T13:50:43;978.35;;;879.88;;
21991;SDS011;11160;51.576;0.194;2022-07-10T13:53:16;1001.70;;;893.90;;
21991;SDS011;11160;51.576;0.194;2022-07-10T13:55:43;953.97;;;863.15;;
21991;SDS011;11160;51.576;0.194;2022-07-10T13:58:11;998.28;;;891.90;;
21991;SDS011;11160;51.576;0.194;2022-07-10T14:00:40;963.45;;;864.20;;
21991;SDS011;11160;51.576;0.194;2022-07-10T14:03:07;1003.78;;;899.90;;
21991;SDS011;11160;51.576;0.194;2022-07-10T14:05:35;960.10;;;869.17;;
21991;SDS011;11160;51.576;0.194;2022-07-10T14:08:03;966.60;;;875.70;;
21991;SDS011;11160;51.576;0.194;2022-07-10T14:10:30;903.70;;;825.42;;
21991;SDS011;11160;51.576;0.194;2022-07-10T14:12:57;840.08;;;767.78;;
21991;SDS011;11160;51.576;0.194;2022-07-10T14:15:25;773.65;;;708.90;;
21991;SDS011;11160;51.576;0.194;2022-07-10T14:17:52;701.20;;;644.25;;
21991;SDS011;11160;51.576;0.194;2022-07-10T14:20:21;684.13;;;628.63;;
21991;SDS011;11160;51.576;0.194;2022-07-10T14:22:48;637.35;;;587.55;;
21991;SDS011;11160;51.576;0.194;2022-07-10T14:25:16;454.42;;;425.08;;
21991;SDS011;11160;51.576;0.194;2022-07-10T14:27:43;440.17;;;412.27;;
21991;SDS011;11160;51.576;0.194;2022-07-10T14:30:12;415.60;;;389.95;;
21991;SDS011;11160;51.576;0.194;2022-07-10T14:32:40;315.63;;;297.25;;
21991;SDS011;11160;51.576;0.194;2022-07-10T14:35:07;336.85;;;315.70;;
21991;SDS011;11160;51.576;0.194;2022-07-10T14:37:35;448.08;;;418.08;;
21991;SDS011;11160;51.576;0.194;2022-07-10T14:40:02;389.27;;;364.75;;
21991;SDS011;11160;51.576;0.194;2022-07-10T14:42:30;426.90;;;397.95;;
21991;SDS011;11160;51.576;0.194;2022-07-10T14:44:57;310.23;;;288.98;;
21991;SDS011;11160;51.576;0.194;2022-07-10T14:47:24;459.40;;;426.98;;
21991;SDS011;11160;51.576;0.194;2022-07-10T14:49:55;394.42;;;367.88;;
21991;SDS011;11160;51.576;0.194;2022-07-10T14:52:22;202.75;;;190.20;;
21991;SDS011;11160;51.576;0.194;2022-07-10T14:54:51;176.40;;;166.27;;
21991;SDS011;11160;51.576;0.194;2022-07-10T14:57:18;183.27;;;172.20;;
21991;SDS011;11160;51.576;0.194;2022-07-10T14:59:46;257.25;;;240.13;;